Time;durP1;ratioP1;P1;durP2;ratioP2;P2;SDS_P1;SDS_P2;PMS_P1;PMS_P2;Temp;Humidity;BMP_temperature;BMP_pressure;BME280_temperature;BME280_humidity;BME280_pressure;Samples;Min_cycle;Max_cycle;Signal;HPM_P1;HPM_P2
2022/09/10 00:27:24;;;;;;;5.3;2.5;;;;;;;;;;;;;-77
2022/09/10 00:57:27;;;;;;;5.3;2.8;;;;;;;;;;;;;-78
2022/09/10 01:27:40;;;;;;;7.2;3.8;;;;;;;;;;;;;-77
2022/09/10 01:57:34;;;;;;;6.4;4;;;;;;;;;;;;;-78
2022/09/10 02:27:32;;;;;;;8;4.3;;;;;;;;;;;;;-78
2022/09/10 02:57:34;;;;;;;7.8;3.9;;;;;;;;;;;;;-78
2022/09/10 03:27:36;;;;;;;6.6;4;;;;;;;;;;;;;-76
2022/09/10 03:57:37;;;;;;;6.1;3.5;;;;;;;;;;;;;-78
2022/09/10 04:27:39;;;;;;;5.6;3.3;;;;;;;;;;;;;-77
2022/09/10 04:57:44;;;;;;;4.9;2.9;;;;;;;;;;;;;-77
2022/09/10 05:27:46;;;;;;;4.4;2.8;;;;;;;;;;;;;-78
2022/09/10 05:57:45;;;;;;;5.2;3;;;;;;;;;;;;;-77
2022/09/10 06:27:47;;;;;;;6.7;3.8;;;;;;;;;;;;;-77
2022/09/10 06:57:49;;;;;;;6.3;3.9;;;;;;;;;;;;;-77
2022/09/10 07:27:50;;;;;;;6.5;4.3;;;;;;;;;;;;;-76
2022/09/10 07:57:54;;;;;;;8.6;5.2;;;;;;;;;;;;;-77
2022/09/10 08:27:55;;;;;;;7.1;5.2;;;;;;;;;;;;;-76
2022/09/10 08:58:00;;;;;;;6.9;4.3;;;;;;;;;;;;;-74
2022/09/10 09:28:03;;;;;;;5.7;3.4;;;;;;;;;;;;;-77
2022/09/10 09:58:17;;;;;;;5.2;3.1;;;;;;;;;;;;;-78
2022/09/10 10:28:17;;;;;;;5.4;2.7;;;;;;;;;;;;;-76
2022/09/10 10:58:20;;;;;;;3;2.2;;;;;;;;;;;;;-78
2022/09/10 11:28:19;;;;;;;3.6;1.8;;;;;;;;;;;;;-78
2022/09/10 11:58:25;;;;;;;3.3;1.6;;;;;;;;;;;;;-77
2022/09/10 12:28:38;;;;;;;3.1;1.7;;;;;;;;;;;;;-77
2022/09/10 12:58:31;;;;;;;2.7;1.4;;;;;;;;;;;;;-77
2022/09/10 13:28:45;;;;;;;2.1;1.3;;;;;;;;;;;;;-76
2022/09/10 13:58:39;;;;;;;2.9;1.2;;;;;;;;;;;;;-76
2022/09/10 14:28:50;;;;;;;2.9;1;;;;;;;;;;;;;-79
2022/09/10 14:58:49;;;;;;;3.1;1.2;;;;;;;;;;;;;-76
2022/09/10 15:28:52;;;;;;;2.6;1.4;;;;;;;;;;;;;-76
2022/09/10 15:58:58;;;;;;;3.2;1.4;;;;;;;;;;;;;-76
2022/09/10 16:29:02;;;;;;;2.7;1.2;;;;;;;;;;;;;-76
2022/09/10 16:59:06;;;;;;;3.6;1.7;;;;;;;;;;;;;-76
2022/09/10 17:29:11;;;;;;;5.1;3.1;;;;;;;;;;;;;-77
2022/09/10 17:59:14;;;;;;;6.3;3.3;;;;;;;;;;;;;-77
2022/09/10 18:29:18;;;;;;;5.2;3;;;;;;;;;;;;;-73
2022/09/10 18:59:21;;;;;;;4.8;3.1;;;;;;;;;;;;;-76
2022/09/10 19:29:23;;;;;;;5.9;3.6;;;;;;;;;;;;;-76
2022/09/10 19:59:24;;;;;;;5.8;3.8;;;;;;;;;;;;;-78
2022/09/10 20:29:31;;;;;;;5.8;3.8;;;;;;;;;;;;;-76
2022/09/10 20:59:29;;;;;;;5.9;3.4;;;;;;;;;;;;;-77
2022/09/10 21:29:31;;;;;;;4.7;3.4;;;;;;;;;;;;;-78
2022/09/10 21:59:33;;;;;;;5.8;3.6;;;;;;;;;;;;;-76
2022/09/10 22:29:35;;;;;;;5.7;3.4;;;;;;;;;;;;;-77
2022/09/10 22:59:37;;;;;;;5;3.3;;;;;;;;;;;;;-76
2022/09/10 23:29:39;;;;;;;6.2;2.9;;;;;;;;;;;;;-77
2022/09/10 23:59:42;;;;;;;5.6;3.5;;;;;;;;;;;;;-76
